Time;durP1;ratioP1;P1;durP2;ratioP2;P2;SDS_P1;SDS_P2;PMS_P1;PMS_P2;Temp;Humidity;BMP_temperature;BMP_pressure;BME280_temperature;BME280_humidity;BME280_pressure;Samples;Min_cycle;Max_cycle;Signal;HPM_P1;HPM_P2
2022/12/27 00:01:22;;;;;;;;;;;;;;;15.32;48.34;99468.22;4475652;31;35548;-83
2022/12/27 00:03:49;;;;;;;;;;;;;;;14.50;50.33;99475.16;4480910;32;34191;-90
2022/12/27 00:06:17;;;;;;;;;;;;;;;15.07;48.61;99475.19;4479195;31;34533;-92
2022/12/27 00:08:45;;;;;;;;;;;;;;;14.55;49.94;99468.22;4480357;32;34348;-93
2022/12/27 00:11:16;;;;;;;;;;;;;;;14.71;49.26;99470.84;4467079;31;33914;-86
2022/12/27 00:13:43;;;;;;;;;;;;;;;15.17;48.24;99473.47;4480273;32;33817;-85
2022/12/27 00:16:11;;;;;;;;;;;;;;;15.16;48.26;99462.16;4481942;32;34494;-90
2022/12/27 00:18:39;;;;;;;;;;;;;;;15.22;48.36;99445.56;4473831;32;33621;-94
2022/12/27 00:21:08;;;;;;;;;;;;;;;15.51;47.57;99438.56;4482725;31;34772;-94
2022/12/27 00:23:37;;;;;;;;;;;;;;;14.65;49.67;99452.56;4475375;32;35261;-83
2022/12/27 00:26:05;;;;;;;;;;;;;;;15.09;48.50;99455.19;4483204;32;34568;-84
2022/12/27 00:28:33;;;;;;;;;;;;;;;15.23;48.13;99458.66;4483581;31;33433;-85
2022/12/27 00:31:02;;;;;;;;;;;;;;;15.22;48.22;99458.63;4469322;32;33638;-82
2022/12/27 00:33:30;;;;;;;;;;;;;;;15.52;47.58;99455.97;4482760;32;34269;-83
2022/12/27 00:35:58;;;;;;;;;;;;;;;14.94;48.97;99458.66;4468445;32;34587;-83
2022/12/27 00:38:25;;;;;;;;;;;;;;;14.51;50.93;99461.25;4483792;31;34134;-90
2022/12/27 00:40:53;;;;;;;;;;;;;;;14.69;50.63;99455.16;4482821;32;35051;-92
2022/12/27 00:43:20;;;;;;;;;;;;;;;14.81;50.31;99454.31;4468619;32;34270;-94
2022/12/27 00:45:47;;;;;;;;;;;;;;;13.95;52.42;99438.47;4485708;31;33773;-84
2022/12/27 00:48:14;;;;;;;;;;;;;;;13.41;54.05;99445.19;4482604;32;34398;-88
2022/12/27 00:50:44;;;;;;;;;;;;;;;13.70;53.35;99426.22;4457550;32;788449;-87
2022/12/27 00:53:11;;;;;;;;;;;;;;;13.08;55.10;99441.47;4470412;32;34127;-92
2022/12/27 00:55:40;;;;;;;;;;;;;;;13.32;54.66;99434.69;4486719;31;34601;-92
2022/12/27 00:58:08;;;;;;;;;;;;;;;12.72;55.91;99436.84;4496521;31;33476;-86
2022/12/27 01:00:35;;;;;;;;;;;;;;;13.97;53.00;99435.88;4498279;31;35043;-90
2022/12/27 01:03:02;;;;;;;;;;;;;;;13.10;55.21;99447.53;4493147;31;34231;-87
2022/12/27 01:05:30;;;;;;;;;;;;;;;12.75;56.15;99441.19;4483779;32;34744;-80
2022/12/27 01:07:57;;;;;;;;;;;;;;;13.37;54.70;99426.06;4475185;32;33522;-87
2022/12/27 01:10:24;;;;;;;;;;;;;;;13.59;54.46;99424.41;4484880;32;35112;-82
2022/12/27 01:12:51;;;;;;;;;;;;;;;13.55;54.09;99430.47;4489357;31;34490;-94
2022/12/27 01:15:19;;;;;;;;;;;;;;;13.58;54.04;99421.81;4492233;31;34581;-93
2022/12/27 01:17:46;;;;;;;;;;;;;;;12.57;57.13;99421.97;4484172;32;33443;-81
2022/12/27 01:20:14;;;;;;;;;;;;;;;13.66;54.25;99421.84;4482867;32;35036;-94
2022/12/27 01:22:42;;;;;;;;;;;;;;;13.93;53.37;99434.12;4483890;32;35236;-82
2022/12/27 01:25:09;;;;;;;;;;;;;;;12.88;55.83;99435.25;4474544;32;33941;-92
2022/12/27 01:27:36;;;;;;;;;;;;;;;13.82;53.11;99416.69;4485890;31;34475;-85
2022/12/27 01:30:04;;;;;;;;;;;;;;;14.05;52.73;99416.81;4498175;31;34970;-83
2022/12/27 01:32:32;;;;;;;;;;;;;;;13.57;54.19;99423.56;4494141;31;35613;-84
2022/12/27 01:34:59;;;;;;;;;;;;;;;14.10;52.99;99435.91;4483239;32;34092;-94
2022/12/27 01:37:27;;;;;;;;;;;;;;;14.27;52.04;99441.16;4479370;31;33761;-95
2022/12/27 01:39:55;;;;;;;;;;;;;;;13.91;52.71;99439.34;4481815;32;34186;-91
2022/12/27 01:45:19;;;;;;;;;;;;;;;12.98;55.89;99455.25;4491615;31;34254;-92
2022/12/27 01:47:55;;;;;;;;;;;;;;;13.01;56.02;99464.84;4472035;31;33649;-83
2022/12/27 01:50:35;;;;;;;;;;;;;;;12.76;56.81;99471.56;4485471;31;34234;-90
2022/12/27 01:53:03;;;;;;;;;;;;;;;13.23;55.30;99477.19;4469973;32;35141;-90
2022/12/27 01:55:36;;;;;;;;;;;;;;;13.70;53.94;99468.78;4493997;31;34286;-91
2022/12/27 01:58:09;;;;;;;;;;;;;;;14.26;52.27;99469.84;4483465;31;33401;-88
2022/12/27 02:00:37;;;;;;;;;;;;;;;13.92;52.82;99469.75;4492372;31;33979;-89
2022/12/27 02:03:04;;;;;;;;;;;;;;;13.79;53.26;99478.38;4476192;32;35411;-90
2022/12/27 02:05:32;;;;;;;;;;;;;;;13.65;53.95;99478.31;4493808;31;34567;-92
2022/12/27 02:08:04;;;;;;;;;;;;;;;14.42;51.80;99481.19;4471049;32;33400;-80
2022/12/27 02:10:32;;;;;;;;;;;;;;;14.79;50.86;99482.16;4484595;31;34013;-93
2022/12/27 02:12:59;;;;;;;;;;;;;;;14.08;52.51;99468.91;4484337;31;34090;-90
2022/12/27 02:15:27;;;;;;;;;;;;;;;14.60;51.32;99469.09;4479261;31;34676;-92
2022/12/27 02:17:54;;;;;;;;;;;;;;;15.24;49.27;99477.81;4499086;31;33194;-91
2022/12/27 02:20:22;;;;;;;;;;;;;;;15.08;49.99;99482.19;4481725;31;34978;-89
2022/12/27 02:25:44;;;;;;;;;;;;;;;14.76;49.94;99477.78;4494638;31;35532;-86
2022/12/27 02:28:29;;;;;;;;;;;;;;;15.21;49.59;99470.84;4484479;31;34278;-85
2022/12/27 02:31:03;;;;;;;;;;;;;;;15.64;47.72;99462.91;4483316;31;33960;-93
2022/12/27 02:33:31;;;;;;;;;;;;;;;15.61;48.41;99465.53;4471188;32;34105;-81
2022/12/27 02:36:00;;;;;;;;;;;;;;;15.68;48.19;99467.31;4456700;32;33511;-85
2022/12/27 02:38:29;;;;;;;;;;;;;;;14.79;50.68;99453.44;4466937;32;33527;-86
2022/12/27 02:55:25;;;;;;;;;;;;;;;15.89;47.87;99452.41;4483939;32;34985;-83
2022/12/27 02:58:07;;;;;;;;;;;;;;;14.97;49.71;99463.03;4469628;32;34566;-88
2022/12/27 03:03:30;;;;;;;;;;;;;;;14.37;50.86;99465.53;4470408;32;34242;-92
2022/12/27 03:09:08;;;;;;;;;;;;;;;15.27;49.44;99469.97;4498469;31;35048;-91
2022/12/27 03:17:41;;;;;;;;;;;;;;;14.74;49.86;99468.25;4473727;31;34132;-87
2022/12/27 03:25:40;;;;;;;;;;;;;;;15.60;47.55;99473.38;4483132;32;33813;-91
2022/12/27 03:34:03;;;;;;;;;;;;;;;16.05;46.36;99470.62;4485301;31;32418;-91
2022/12/27 03:39:29;;;;;;;;;;;;;;;15.60;46.81;99474.22;4484604;31;35147;-90
2022/12/27 03:44:47;;;;;;;;;;;;;;;15.90;45.69;99486.38;4481805;32;33501;-92
2022/12/27 03:47:23;;;;;;;;;;;;;;;16.00;45.25;99488.09;4483110;32;34981;-92
2022/12/27 03:49:55;;;;;;;;;;;;;;;16.26;44.30;99493.19;4469127;32;35258;-86
2022/12/27 03:52:24;;;;;;;;;;;;;;;16.66;43.24;99505.19;4469746;32;34700;-86
2022/12/27 03:54:52;;;;;;;;;;;;;;;16.03;44.53;99495.94;4469408;32;33779;-82
2022/12/27 03:57:20;;;;;;;;;;;;;;;16.08;44.10;99508.97;4469103;32;34870;-94
2022/12/27 03:59:48;;;;;;;;;;;;;;;15.90;44.19;99516.88;4468549;32;34346;-92
2022/12/27 04:02:15;;;;;;;;;;;;;;;16.14;43.46;99516.81;4468288;32;34661;-89
2022/12/27 04:04:43;;;;;;;;;;;;;;;16.09;43.47;99513.31;4468823;32;33431;-91
2022/12/27 04:07:13;;;;;;;;;;;;;;;16.01;43.51;99509.88;4487849;31;34020;-92
2022/12/27 04:34:44;;;;;;;;;;;;;;;14.39;46.38;99522.91;4482806;32;34572;-89
2022/12/27 04:37:17;;;;;;;;;;;;;;;14.92;45.37;99530.88;4484959;31;33015;-89
2022/12/27 04:54:55;;;;;;;;;;;;;;;14.25;47.67;99535.94;4486366;31;34563;-86
2022/12/27 04:56:28;;;;;;;;;;;;;;;13.41;50.62;99579.72;4484796;32;35130;-87
2022/12/27 05:04:28;;;;;;;;;;;;;;;13.90;49.65;99601.78;4484678;31;34883;-91
2022/12/27 05:06:56;;;;;;;;;;;;;;;13.95;49.01;99607.91;4484854;31;34441;-89
2022/12/27 05:14:55;;;;;;;;;;;;;;;13.67;49.96;99616.38;4485607;31;35331;-87
2022/12/27 05:17:23;;;;;;;;;;;;;;;13.54;50.22;99616.31;4485001;31;34544;-93
2022/12/27 05:19:50;;;;;;;;;;;;;;;13.07;51.74;99608.91;4484658;32;34428;-86
2022/12/27 05:27:51;;;;;;;;;;;;;;;13.30;51.02;99619.59;4468808;32;34778;-89
2022/12/27 05:30:18;;;;;;;;;;;;;;;14.06;49.04;99624.50;4475373;31;34396;-83
2022/12/27 05:32:45;;;;;;;;;;;;;;;13.30;50.71;99629.13;4485015;31;34276;-81
2022/12/27 05:35:14;;;;;;;;;;;;;;;12.18;54.38;99641.66;4498899;31;35180;-86
2022/12/27 05:37:41;;;;;;;;;;;;;;;13.28;50.78;99649.94;4500136;31;35192;-89
2022/12/27 05:40:09;;;;;;;;;;;;;;;13.48;50.24;99660.53;4490020;31;33729;-83
2022/12/27 05:42:36;;;;;;;;;;;;;;;13.38;50.77;99663.91;4484026;32;35830;-93
2022/12/27 05:45:04;;;;;;;;;;;;;;;12.28;53.91;99665.22;4484286;32;33816;-81
2022/12/27 05:47:31;;;;;;;;;;;;;;;13.07;51.41;99660.13;4484741;31;35121;-92
2022/12/27 05:49:58;;;;;;;;;;;;;;;12.70;51.82;99669.22;4485354;31;33809;-89
2022/12/27 05:52:26;;;;;;;;;;;;;;;13.08;51.78;99677.47;4487585;31;34642;-91
2022/12/27 05:54:53;;;;;;;;;;;;;;;13.40;50.82;99672.59;4485761;31;35196;-83
2022/12/27 05:57:20;;;;;;;;;;;;;;;13.27;50.85;99675.97;4483318;32;34210;-92
2022/12/27 05:59:48;;;;;;;;;;;;;;;13.27;50.84;99686.38;4485693;31;33667;-83
2022/12/27 06:02:15;;;;;;;;;;;;;;;13.52;50.18;99693.53;4476074;31;34011;-86
2022/12/27 06:04:43;;;;;;;;;;;;;;;13.71;49.46;99699.78;4484951;31;34323;-94
2022/12/27 06:07:10;;;;;;;;;;;;;;;13.63;49.58;99702.34;4471391;31;34310;-93
2022/12/27 06:09:37;;;;;;;;;;;;;;;13.21;50.67;99701.88;4487483;31;33615;-83
2022/12/27 06:12:05;;;;;;;;;;;;;;;12.66;52.21;99712.53;4469432;32;33774;-90
2022/12/27 06:14:32;;;;;;;;;;;;;;;13.22;50.68;99708.84;4484974;31;32968;-88
2022/12/27 06:17:00;;;;;;;;;;;;;;;13.23;50.81;99710.59;4483823;32;33855;-87
2022/12/27 06:19:27;;;;;;;;;;;;;;;13.05;51.31;99727.75;4483848;32;34470;-92
2022/12/27 06:21:54;;;;;;;;;;;;;;;12.79;51.46;99713.56;4484100;32;33828;-92
2022/12/27 06:24:22;;;;;;;;;;;;;;;12.54;52.38;99723.66;4485592;31;35274;-89
2022/12/27 06:26:49;;;;;;;;;;;;;;;13.14;50.60;99726.97;4483584;32;34451;-91
2022/12/27 06:29:16;;;;;;;;;;;;;;;13.52;49.43;99722.19;4483749;32;33641;-91
2022/12/27 06:31:43;;;;;;;;;;;;;;;12.41;52.01;99739.91;4484294;32;34308;-83
2022/12/27 06:34:11;;;;;;;;;;;;;;;12.63;51.79;99749.78;4484163;32;34411;-81
2022/12/27 06:36:38;;;;;;;;;;;;;;;12.45;51.75;99759.91;4484097;32;34636;-93
2022/12/27 06:39:05;;;;;;;;;;;;;;;12.35;52.46;99753.72;4483370;31;34595;-87
2022/12/27 06:41:33;;;;;;;;;;;;;;;11.71;54.19;99752.66;4486098;31;34150;-96
2022/12/27 06:44:00;;;;;;;;;;;;;;;12.93;50.63;99758.84;4496933;31;34896;-92
2022/12/27 06:46:28;;;;;;;;;;;;;;;12.16;52.33;99768.16;4499416;31;35268;-85
2022/12/27 06:48:55;;;;;;;;;;;;;;;11.77;53.93;99765.72;4473766;32;33149;-90
2022/12/27 06:51:23;;;;;;;;;;;;;;;10.94;56.17;99786.59;4483488;32;34140;-91
2022/12/27 06:53:50;;;;;;;;;;;;;;;11.94;53.25;99766.06;4482330;32;35070;-84
2022/12/27 06:56:21;;;;;;;;;;;;;;;11.84;53.35;99764.13;4483405;32;34505;-91
2022/12/27 06:58:49;;;;;;;;;;;;;;;12.82;50.79;99774.31;4473682;31;33114;-91
2022/12/27 07:01:17;;;;;;;;;;;;;;;12.93;50.06;99777.06;4483469;31;34894;-86
2022/12/27 07:03:49;;;;;;;;;;;;;;;13.51;48.64;99780.37;4499792;31;35297;-86
2022/12/27 07:06:16;;;;;;;;;;;;;;;13.67;48.06;99772.72;4499559;31;34430;-93
2022/12/27 07:08:44;;;;;;;;;;;;;;;13.27;48.80;99774.91;4475200;32;33433;-94
2022/12/27 07:11:13;;;;;;;;;;;;;;;12.79;50.10;99782.06;4483624;32;35105;-94
2022/12/27 07:13:42;;;;;;;;;;;;;;;13.33;48.42;99764.53;4469699;31;34129;-91
2022/12/27 07:16:10;;;;;;;;;;;;;;;13.00;49.53;99784.09;4475190;31;34458;-90
2022/12/27 07:18:38;;;;;;;;;;;;;;;12.87;49.54;99785.66;4480762;31;34424;-90
2022/12/27 07:21:06;;;;;;;;;;;;;;;12.16;50.94;99775.97;4480998;31;34023;-88
2022/12/27 07:23:34;;;;;;;;;;;;;;;11.18;53.41;99792.31;4481504;31;34407;-90
2022/12/27 07:26:02;;;;;;;;;;;;;;;12.27;50.55;99783.91;4469091;32;34271;-85
2022/12/27 07:28:29;;;;;;;;;;;;;;;12.00;51.42;99776.53;4467979;32;33145;-90
2022/12/27 07:30:57;;;;;;;;;;;;;;;12.32;50.28;99776.19;4482352;32;33616;-90
2022/12/27 07:33:24;;;;;;;;;;;;;;;10.95;53.62;99788.37;4477503;31;35209;-82
2022/12/27 07:35:58;;;;;;;;;;;;;;;10.66;54.32;99772.19;4488208;31;34427;-88
2022/12/27 07:38:26;;;;;;;;;;;;;;;10.81;54.30;99780.28;4468073;32;33483;-92
2022/12/27 07:40:53;;;;;;;;;;;;;;;11.57;52.34;99780.09;4471885;32;35153;-89
2022/12/27 07:43:21;;;;;;;;;;;;;;;11.45;52.78;99786.78;4469566;31;34480;-83
2022/12/27 07:45:48;;;;;;;;;;;;;;;11.23;53.50;99799.31;4484663;31;33839;-94
2022/12/27 07:48:15;;;;;;;;;;;;;;;10.63;53.96;99817.06;4486000;31;32315;-92
2022/12/27 07:50:42;;;;;;;;;;;;;;;11.88;50.85;99800.59;4484596;31;33767;-85
2022/12/27 07:53:10;;;;;;;;;;;;;;;11.29;52.30;99817.59;4482804;31;34603;-86
2022/12/27 07:55:37;;;;;;;;;;;;;;;11.17;52.88;99831.19;4492777;31;34479;-93
2022/12/27 07:58:05;;;;;;;;;;;;;;;10.59;54.39;99841.16;4486013;31;33633;-87
2022/12/27 08:00:32;;;;;;;;;;;;;;;10.74;53.86;99844.97;4482659;32;35025;-92
2022/12/27 08:03:00;;;;;;;;;;;;;;;10.93;53.32;99842.81;4483790;31;34258;-90
2022/12/27 08:05:27;;;;;;;;;;;;;;;11.26;52.77;99852.19;4486349;31;34584;-95
2022/12/27 08:07:56;;;;;;;;;;;;;;;11.63;51.46;99855.50;4481818;32;34636;-90
2022/12/27 08:10:23;;;;;;;;;;;;;;;11.51;51.84;99873.44;4482478;32;34109;-89
2022/12/27 08:12:50;;;;;;;;;;;;;;;11.79;50.67;99869.69;4481564;31;35235;-91
2022/12/27 08:15:17;;;;;;;;;;;;;;;10.86;53.12;99866.84;4482841;32;34622;-93
2022/12/27 08:17:45;;;;;;;;;;;;;;;11.22;52.50;99875.44;4483289;32;33769;-87
2022/12/27 08:20:13;;;;;;;;;;;;;;;11.18;52.41;99877.97;4478013;31;34165;-93
2022/12/27 08:22:41;;;;;;;;;;;;;;;11.34;52.08;99881.75;4490163;31;34195;-91
2022/12/27 08:25:08;;;;;;;;;;;;;;;11.40;51.62;99874.09;4499800;31;33982;-87
2022/12/27 08:27:35;;;;;;;;;;;;;;;11.23;52.08;99865.09;4499127;31;33134;-94
2022/12/27 08:30:03;;;;;;;;;;;;;;;11.44;51.58;99875.06;4500039;31;33670;-93
2022/12/27 08:32:30;;;;;;;;;;;;;;;10.51;53.61;99881.59;4484728;31;35428;-91
2022/12/27 08:35:00;;;;;;;;;;;;;;;10.62;53.94;99881.88;4482752;32;33920;-91
2022/12/27 08:37:48;;;;;;;;;;;;;;;10.79;53.08;99890.03;4481961;32;33386;-90
2022/12/27 08:40:15;;;;;;;;;;;;;;;10.95;52.61;99903.41;4479274;31;34239;-89
2022/12/27 08:42:42;;;;;;;;;;;;;;;11.33;51.77;99923.28;4481667;31;34062;-94
2022/12/27 08:45:10;;;;;;;;;;;;;;;10.99;51.69;99913.84;4481748;32;33783;-93
2022/12/27 08:47:38;;;;;;;;;;;;;;;11.12;51.76;99919.34;4481931;32;32357;-89
2022/12/27 08:50:06;;;;;;;;;;;;;;;11.01;51.74;99913.03;4484124;31;33843;-91
2022/12/27 08:52:34;;;;;;;;;;;;;;;10.86;52.52;99904.91;4477254;31;33476;-89
2022/12/27 08:55:02;;;;;;;;;;;;;;;10.39;52.44;99920.19;4481811;32;34226;-83
2022/12/27 08:57:30;;;;;;;;;;;;;;;11.20;50.60;99920.38;4468231;32;33041;-86
2022/12/27 08:59:57;;;;;;;;;;;;;;;10.45;51.50;99908.25;4487055;31;34323;-88
2022/12/27 09:02:25;;;;;;;;;;;;;;;10.24;51.75;99929.28;4487791;31;34704;-91
2022/12/27 09:04:52;;;;;;;;;;;;;;;10.37;50.81;99919.25;4488560;31;32550;-87
2022/12/27 09:07:20;;;;;;;;;;;;;;;10.32;50.65;99918.28;4498292;31;32968;-89
2022/12/27 09:09:48;;;;;;;;;;;;;;;10.67;50.49;99932.97;4498539;31;34919;-92
2022/12/27 09:12:15;;;;;;;;;;;;;;;11.22;47.95;99924.75;4491884;31;34295;-87
2022/12/27 09:14:42;;;;;;;;;;;;;;;10.93;47.65;99924.97;4473501;32;35160;-85
2022/12/27 09:17:10;;;;;;;;;;;;;;;10.23;49.10;99944.81;4476498;31;33410;-91
2022/12/27 09:19:37;;;;;;;;;;;;;;;10.24;49.16;99918.91;4489560;31;34202;-85
2022/12/27 09:22:04;;;;;;;;;;;;;;;9.78;49.54;99934.06;4486262;31;34606;-90
2022/12/27 09:24:32;;;;;;;;;;;;;;;10.17;48.96;99918.72;4492660;31;35211;-92
2022/12/27 09:26:59;;;;;;;;;;;;;;;10.00;48.30;99918.28;4488760;32;33796;-94
2022/12/27 09:29:26;;;;;;;;;;;;;;;10.18;47.93;99920.47;4486992;32;34259;-83
2022/12/27 09:31:53;;;;;;;;;;;;;;;10.12;47.76;99930.69;4489938;31;34486;-94
2022/12/27 09:34:21;;;;;;;;;;;;;;;9.86;46.99;99923.06;4494023;32;34735;-84
2022/12/27 09:36:49;;;;;;;;;;;;;;;10.00;46.26;99939.00;4489485;32;33638;-96
2022/12/27 09:39:16;;;;;;;;;;;;;;;10.09;44.14;99939.22;4485099;32;34059;-95
2022/12/27 09:42:02;;;;;;;;;;;;;;;10.17;43.25;99939.44;4494943;31;34484;-90
2022/12/27 09:44:51;;;;;;;;;;;;;;;9.99;44.13;99940.69;4484946;32;35066;-93
2022/12/27 09:47:37;;;;;;;;;;;;;;;10.50;43.78;99944.66;4472598;32;33830;-92
2022/12/27 09:50:05;;;;;;;;;;;;;;;10.14;44.12;99945.41;4485625;32;33835;-89
2022/12/27 09:52:34;;;;;;;;;;;;;;;9.70;44.95;99950.25;4483981;32;34434;-83
2022/12/27 09:55:01;;;;;;;;;;;;;;;9.95;43.78;99948.34;4470733;31;34218;-82
2022/12/27 09:57:34;;;;;;;;;;;;;;;9.83;44.35;99935.06;4494541;31;34513;-94
2022/12/27 10:00:05;;;;;;;;;;;;;;;9.52;43.47;99957.47;4484404;32;34891;-91
2022/12/27 10:02:33;;;;;;;;;;;;;;;9.92;43.01;99959.47;4484712;32;33999;-84
2022/12/27 10:05:01;;;;;;;;;;;;;;;9.59;42.45;99954.25;4485662;32;35493;-92
2022/12/27 10:08:04;;;;;;;;;;;;;;;9.57;42.65;99950.72;4488633;31;33637;-85
2022/12/27 10:10:34;;;;;;;;;;;;;;;9.83;42.10;99950.59;4485758;31;34248;-88
2022/12/27 10:13:07;;;;;;;;;;;;;;;9.21;41.84;99951.38;4489637;31;34380;-88
2022/12/27 10:16:00;;;;;;;;;;;;;;;9.38;42.38;99956.19;4496192;31;35214;-85
2022/12/27 10:18:46;;;;;;;;;;;;;;;8.84;42.97;99948.47;4490143;31;33613;-90
2022/12/27 10:21:21;;;;;;;;;;;;;;;8.65;43.54;99955.63;4480294;31;34353;-93
2022/12/27 10:24:02;;;;;;;;;;;;;;;8.59;43.99;99978.66;4475247;32;35320;-84
2022/12/27 10:26:29;;;;;;;;;;;;;;;8.70;43.54;99974.72;4468166;32;34377;-93
2022/12/27 10:28:57;;;;;;;;;;;;;;;8.92;43.76;99985.78;4484132;31;34021;-83
2022/12/27 10:31:24;;;;;;;;;;;;;;;8.75;44.27;99986.13;4487265;31;34147;-85
2022/12/27 10:33:51;;;;;;;;;;;;;;;8.53;44.71;100004.31;4482839;32;34569;-90
2022/12/27 10:36:23;;;;;;;;;;;;;;;9.00;44.13;99955.87;4482142;31;34349;-82
2022/12/27 10:38:50;;;;;;;;;;;;;;;8.78;44.80;99975.84;4470868;32;33792;-89
2022/12/27 10:41:36;;;;;;;;;;;;;;;9.57;43.81;99976.59;4484170;31;35107;-87
2022/12/27 10:44:12;;;;;;;;;;;;;;;9.36;44.74;99958.72;4485400;31;34342;-83
2022/12/27 10:46:40;;;;;;;;;;;;;;;9.11;45.20;99956.22;4483842;31;34027;-89
2022/12/27 10:49:17;;;;;;;;;;;;;;;9.00;45.85;99963.63;4498602;31;33572;-91
2022/12/27 10:51:48;;;;;;;;;;;;;;;8.91;46.20;99977.16;4469658;32;34284;-91
2022/12/27 10:54:26;;;;;;;;;;;;;;;8.89;46.27;99981.38;4473777;31;33572;-88
2022/12/27 10:56:54;;;;;;;;;;;;;;;9.07;45.79;99973.34;4473419;31;34430;-91
2022/12/27 10:59:25;;;;;;;;;;;;;;;9.07;45.90;99982.81;4484977;31;33421;-92
2022/12/27 11:01:58;;;;;;;;;;;;;;;8.97;46.25;99985.09;4469684;32;33987;-89
2022/12/27 11:04:26;;;;;;;;;;;;;;;9.01;45.87;99988.66;4478756;31;34164;-92
2022/12/27 11:06:58;;;;;;;;;;;;;;;9.27;45.06;99995.53;4487658;31;34772;-89
2022/12/27 11:09:32;;;;;;;;;;;;;;;9.35;44.91;99994.91;4484015;32;33545;-85
2022/12/27 11:12:14;;;;;;;;;;;;;;;9.62;44.04;100006.13;4484391;31;35015;-87
2022/12/27 11:15:01;;;;;;;;;;;;;;;9.94;41.51;99988.91;4492111;31;34335;-82
2022/12/27 11:17:45;;;;;;;;;;;;;;;9.56;42.95;99980.03;4498999;31;35004;-86
2022/12/27 11:20:18;;;;;;;;;;;;;;;9.63;42.70;99997.50;4482116;31;34042;-85
2022/12/27 11:22:47;;;;;;;;;;;;;;;9.21;43.42;99997.94;4491919;31;34999;-89
2022/12/27 11:25:15;;;;;;;;;;;;;;;9.83;43.45;100000.66;4469499;32;35203;-84
2022/12/27 11:27:46;;;;;;;;;;;;;;;9.96;43.71;100001.88;4469147;32;34129;-91
2022/12/27 11:30:23;;;;;;;;;;;;;;;9.85;44.62;99998.12;4467928;32;33681;-92
2022/12/27 11:32:51;;;;;;;;;;;;;;;9.80;45.29;100000.56;4485371;31;34115;-88
2022/12/27 11:35:19;;;;;;;;;;;;;;;9.61;45.33;99991.38;4487200;31;34883;-84
2022/12/27 11:37:46;;;;;;;;;;;;;;;10.48;43.36;99990.41;4484275;31;34881;-83
2022/12/27 11:40:23;;;;;;;;;;;;;;;10.20;43.20;99988.75;4465837;32;34421;-83
2022/12/27 11:42:52;;;;;;;;;;;;;;;9.55;43.98;100000.69;4480103;31;35149;-85
2022/12/27 11:45:27;;;;;;;;;;;;;;;9.41;42.99;100005.44;4480190;31;33916;-87
2022/12/27 11:48:12;;;;;;;;;;;;;;;8.91;43.40;100008.19;4469610;32;35841;-87
2022/12/27 11:50:59;;;;;;;;;;;;;;;9.55;41.68;100006.75;4486692;31;33957;-90
2022/12/27 11:53:33;;;;;;;;;;;;;;;9.42;41.67;100013.25;4485185;31;33748;-85
2022/12/27 11:56:03;;;;;;;;;;;;;;;9.11;42.58;100019.16;4472560;31;35353;-92
2022/12/27 11:58:49;;;;;;;;;;;;;;;9.74;41.54;100027.19;4486224;31;34456;-93
2022/12/27 12:01:26;;;;;;;;;;;;;;;9.43;41.68;99993.41;4482406;31;33272;-82
2022/12/27 12:04:03;;;;;;;;;;;;;;;9.15;42.46;99996.88;4478272;31;35191;-84
2022/12/27 12:06:30;;;;;;;;;;;;;;;9.27;43.10;100007.59;4471690;31;35229;-82
2022/12/27 12:09:01;;;;;;;;;;;;;;;8.97;43.87;100002.31;4486969;31;34755;-91
2022/12/27 12:11:47;;;;;;;;;;;;;;;9.10;42.91;99994.16;4489713;31;33499;-91
2022/12/27 12:14:44;;;;;;;;;;;;;;;9.68;42.57;99995.91;4487172;31;34711;-90
2022/12/27 12:17:14;;;;;;;;;;;;;;;8.89;41.45;99988.28;4494734;31;34148;-91
2022/12/27 12:20:00;;;;;;;;;;;;;;;9.86;40.41;99981.75;4480224;32;34626;-83
2022/12/27 12:22:32;;;;;;;;;;;;;;;8.92;40.20;99983.19;4486733;31;33506;-89
2022/12/27 12:25:00;;;;;;;;;;;;;;;8.97;39.38;99992.84;4483074;31;35108;-87
2022/12/27 12:27:37;;;;;;;;;;;;;;;8.69;40.42;99975.56;4481426;32;35299;-83
2022/12/27 12:30:10;;;;;;;;;;;;;;;8.73;40.11;99973.97;4488312;31;33992;-84
2022/12/27 12:32:50;;;;;;;;;;;;;;;8.92;40.51;99978.03;4466557;31;33616;-91
2022/12/27 12:35:17;;;;;;;;;;;;;;;9.19;39.51;99978.91;4492892;31;34310;-91
2022/12/27 12:37:45;;;;;;;;;;;;;;;8.67;40.74;99986.69;4482194;32;34490;-86
2022/12/27 12:40:24;;;;;;;;;;;;;;;8.51;40.75;99970.66;4486796;31;34573;-90
2022/12/27 12:43:10;;;;;;;;;;;;;;;8.92;39.76;99988.38;4485350;32;33497;-91
2022/12/27 12:45:40;;;;;;;;;;;;;;;8.16;41.21;100008.16;4481761;32;34126;-86
2022/12/27 12:48:13;;;;;;;;;;;;;;;8.32;41.21;99995.78;4499400;31;34847;-86
2022/12/27 12:51:03;;;;;;;;;;;;;;;7.89;42.59;100004.59;4489451;31;34130;-81
2022/12/27 12:53:33;;;;;;;;;;;;;;;8.07;41.76;99992.34;4469574;32;33663;-85
2022/12/27 12:56:20;;;;;;;;;;;;;;;8.61;41.01;100007.16;4478144;31;35315;-94
2022/12/27 12:58:56;;;;;;;;;;;;;;;8.15;41.50;100028.78;4485186;32;34104;-90
2022/12/27 13:01:32;;;;;;;;;;;;;;;8.03;41.10;100017.19;4484535;32;35533;-91
2022/12/27 13:04:11;;;;;;;;;;;;;;;8.15;40.85;100027.06;4479951;32;32273;-89
2022/12/27 13:06:58;;;;;;;;;;;;;;;8.57;41.10;100021.69;4470645;32;35565;-95
2022/12/27 13:09:45;;;;;;;;;;;;;;;7.91;41.63;100026.16;4480987;32;34443;-90
2022/12/27 13:12:14;;;;;;;;;;;;;;;8.08;40.38;100032.84;4483531;31;34185;-89
2022/12/27 13:14:49;;;;;;;;;;;;;;;7.95;41.15;100033.19;4467843;32;33114;-86
2022/12/27 13:17:17;;;;;;;;;;;;;;;8.13;41.15;100035.59;4475822;32;33935;-87
2022/12/27 13:19:56;;;;;;;;;;;;;;;8.35;40.39;100027.78;4483977;31;34356;-85
2022/12/27 13:22:41;;;;;;;;;;;;;;;8.09;41.42;100025.97;4479217;31;34564;-82
2022/12/27 13:25:29;;;;;;;;;;;;;;;8.18;40.05;100029.78;4477471;31;33536;-90
2022/12/27 13:28:03;;;;;;;;;;;;;;;8.18;39.46;100042.69;4478069;31;34391;-93
2022/12/27 13:30:45;;;;;;;;;;;;;;;8.56;38.85;100061.28;4482000;32;34669;-93
2022/12/27 13:33:13;;;;;;;;;;;;;;;8.78;38.15;100058.59;4477907;32;34463;-92
2022/12/27 13:35:59;;;;;;;;;;;;;;;7.97;39.92;100067.72;4483654;32;33884;-83
2022/12/27 13:38:45;;;;;;;;;;;;;;;7.79;40.68;100079.09;4495316;31;34426;-81
2022/12/27 13:41:15;;;;;;;;;;;;;;;8.27;40.33;100074.00;4482714;31;34308;-87
2022/12/27 13:43:45;;;;;;;;;;;;;;;8.60;40.05;100093.28;4490240;31;34830;-88
2022/12/27 13:46:22;;;;;;;;;;;;;;;8.92;38.86;100108.22;4471060;31;33555;-86
2022/12/27 13:48:55;;;;;;;;;;;;;;;8.26;40.91;100095.50;4477703;32;35018;-89
2022/12/27 13:51:22;;;;;;;;;;;;;;;7.96;40.89;100102.09;4468591;32;35281;-87
2022/12/27 13:53:57;;;;;;;;;;;;;;;7.77;41.49;100106.56;4483837;32;35080;-82
2022/12/27 13:56:29;;;;;;;;;;;;;;;8.28;40.87;100111.94;4468407;32;33705;-86
2022/12/27 13:59:29;;;;;;;;;;;;;;;9.01;38.96;100120.56;4471498;32;35006;-85
2022/12/27 14:02:15;;;;;;;;;;;;;;;8.81;39.83;100129.34;4468294;32;34385;-85
2022/12/27 14:05:02;;;;;;;;;;;;;;;9.43;38.76;100138.34;4482558;31;34525;-89
2022/12/27 14:07:48;;;;;;;;;;;;;;;9.07;38.85;100153.53;4471379;31;33206;-83
2022/12/27 14:10:34;;;;;;;;;;;;;;;8.91;39.38;100149.53;4476787;31;34282;-82
2022/12/27 14:13:02;;;;;;;;;;;;;;;8.79;39.15;100160.34;4474758;32;33509;-88
2022/12/27 14:15:29;;;;;;;;;;;;;;;9.22;38.23;100172.19;4465112;31;34956;-91
2022/12/27 14:18:05;;;;;;;;;;;;;;;9.49;38.33;100175.69;4473692;31;33487;-83
2022/12/27 14:20:51;;;;;;;;;;;;;;;9.22;38.71;100174.75;4477017;31;34349;-91
2022/12/27 14:23:18;;;;;;;;;;;;;;;9.84;37.40;100177.66;4465644;32;33150;-86
2022/12/27 14:26:01;;;;;;;;;;;;;;;8.64;39.32;100176.19;4477431;31;34359;-87
2022/12/27 14:28:28;;;;;;;;;;;;;;;8.63;39.01;100176.97;4490925;31;33061;-87
2022/12/27 14:31:14;;;;;;;;;;;;;;;8.39;39.86;100170.91;4488155;31;35127;-80
2022/12/27 14:33:54;;;;;;;;;;;;;;;8.71;39.64;100179.84;4488778;31;34042;-85
2022/12/27 14:36:31;;;;;;;;;;;;;;;9.25;37.70;100175.75;4481454;31;33792;-91
2022/12/27 14:39:07;;;;;;;;;;;;;;;9.52;37.18;100174.91;4497421;31;34355;-94
2022/12/27 14:41:46;;;;;;;;;;;;;;;8.57;39.18;100181.94;4488335;31;34593;-93
2022/12/27 14:44:16;;;;;;;;;;;;;;;9.32;38.20;100181.12;4492457;31;33935;-86
2022/12/27 14:47:03;;;;;;;;;;;;;;;9.46;37.71;100193.69;4482402;31;33917;-88
2022/12/27 14:49:49;;;;;;;;;;;;;;;9.65;37.89;100196.91;4481834;32;34391;-88
2022/12/27 14:52:22;;;;;;;;;;;;;;;9.05;38.55;100201.75;4488010;31;33568;-93
2022/12/27 14:54:52;;;;;;;;;;;;;;;9.78;37.88;100206.84;4492890;31;35372;-83